Time;durP1;ratioP1;P1;durP2;ratioP2;P2;SDS_P1;SDS_P2;PMS_P1;PMS_P2;Temp;Humidity;BMP_temperature;BMP_pressure;BME280_temperature;BME280_humidity;BME280_pressure;Samples;Min_cycle;Max_cycle;Signal;HPM_P1;HPM_P2
2022/10/02 12:36:55;;;;;;;11.77;5.87;;;14.60;99.90;;;;;;4958262;29;20408;-78
2022/10/02 12:39:37;;;;;;;6.90;4.43;;;14.80;99.90;;;;;;4957252;28;21128;-78
2022/10/02 12:42:25;;;;;;;6.70;4.50;;;14.80;99.90;;;;;;4958205;28;20422;-78
2022/10/02 12:45:31;;;;;;;6.83;4.10;;;14.90;99.90;;;;;;4957309;28;20840;-78
2022/10/02 12:48:10;;;;;;;8.40;5.13;;;14.90;99.90;;;;;;4957564;28;20835;-78
2022/10/02 12:51:19;;;;;;;4.47;4.17;;;14.90;99.90;;;;;;4958376;28;20417;-78
2022/10/02 12:54:25;;;;;;;7.77;4.67;;;14.80;99.90;;;;;;4932702;28;20465;-77
2022/10/02 12:57:50;;;;;;;4.93;4.20;;;14.70;99.90;;;;;;4942490;28;20446;-77
2022/10/02 13:00:13;;;;;;;7.70;4.10;;;14.70;99.90;;;;;;4959443;29;20446;-78
2022/10/02 13:03:07;;;;;;;4.50;4.10;;;14.60;99.90;;;;;;4962258;28;20450;-78
2022/10/02 13:06:23;;;;;;;7.70;5.50;;;14.50;99.90;;;;;;4962462;28;20466;-78
2022/10/02 13:09:04;;;;;;;4.43;3.83;;;14.50;99.90;;;;;;4959229;28;20474;-78
2022/10/02 13:11:43;;;;;;;5.53;3.40;;;14.50;99.90;;;;;;4959443;28;20439;-78
2022/10/02 13:14:27;;;;;;;3.57;3.10;;;14.70;99.90;;;;;;4958075;28;20430;-78
2022/10/02 13:17:07;;;;;;;6.10;3.40;;;14.70;99.90;;;;;;4959135;28;20429;-78
2022/10/02 13:19:43;;;;;;;3.77;3.37;;;15.00;99.90;;;;;;4959312;28;20841;-78
2022/10/02 13:22:15;;;;;;;3.80;2.73;;;15.20;99.90;;;;;;4957167;28;20431;-78
2022/10/02 13:24:54;;;;;;;4.80;3.10;;;15.40;99.90;;;;;;4956186;28;20431;-77
2022/10/02 13:27:36;;;;;;;4.60;2.40;;;15.80;99.90;;;;;;4955808;28;20470;-78
2022/10/02 13:30:12;;;;;;;6.60;3.90;;;15.80;99.90;;;;;;4956311;28;20541;-77
2022/10/02 13:33:17;;;;;;;7.77;3.20;;;15.90;99.90;;;;;;4961134;28;20461;-77
2022/10/02 13:36:08;;;;;;;6.90;3.30;;;15.90;99.90;;;;;;4927604;28;20477;-78
2022/10/02 13:39:06;;;;;;;4.47;2.30;;;15.90;99.90;;;;;;4955954;28;20524;-78
2022/10/02 13:41:47;;;;;;;3.57;2.87;;;15.90;99.90;;;;;;4955474;28;20458;-78
2022/10/02 13:44:23;;;;;;;5.87;3.10;;;15.80;99.90;;;;;;4959717;28;20430;-78
2022/10/02 13:47:04;;;;;;;3.80;2.30;;;15.70;99.90;;;;;;4958494;28;20493;-78
2022/10/02 13:49:47;;;;;;;4.10;2.87;;;15.60;99.90;;;;;;4958002;28;20466;-78
2022/10/02 13:52:24;;;;;;;10.00;3.40;;;15.40;99.90;;;;;;4957514;28;20426;-78
2022/10/02 13:55:07;;;;;;;3.30;2.87;;;15.10;99.90;;;;;;4957525;28;20431;-78
2022/10/02 13:58:02;;;;;;;4.47;3.17;;;14.80;99.90;;;;;;4957125;28;20466;-78
2022/10/02 14:01:06;;;;;;;3.40;2.97;;;14.70;99.90;;;;;;4959924;28;20462;-78
2022/10/02 14:03:47;;;;;;;6.87;3.70;;;14.70;99.90;;;;;;4960812;28;20435;-77
2022/10/02 14:06:19;;;;;;;9.20;3.27;;;14.70;99.90;;;;;;4960359;28;20569;-78
2022/10/02 14:09:02;;;;;;;5.90;2.90;;;14.70;99.90;;;;;;4956399;28;20525;-77
2022/10/02 14:11:42;;;;;;;3.13;2.70;;;14.80;99.90;;;;;;4957837;28;20616;-78
2022/10/02 14:14:18;;;;;;;4.90;2.87;;;14.80;99.90;;;;;;4956817;28;20433;-77
2022/10/02 14:16:57;;;;;;;3.90;2.70;;;14.80;99.90;;;;;;4956775;28;20413;-78
2022/10/02 14:19:59;;;;;;;5.37;2.57;;;14.90;99.90;;;;;;4958343;28;20474;-77
2022/10/02 14:22:34;;;;;;;5.20;2.50;;;14.90;99.90;;;;;;4937418;28;20454;-77
2022/10/02 14:25:21;;;;;;;8.40;2.63;;;15.00;99.90;;;;;;4960511;28;20433;-78
2022/10/02 14:28:17;;;;;;;3.70;2.10;;;15.00;99.90;;;;;;4963115;28;20500;-78
2022/10/02 14:30:56;;;;;;;4.83;2.63;;;15.00;99.90;;;;;;4961486;28;20489;-77
2022/10/02 14:33:37;;;;;;;3.93;2.20;;;15.10;99.90;;;;;;4963972;28;20900;-77
2022/10/02 14:36:13;;;;;;;5.40;2.40;;;15.10;99.90;;;;;;4963481;28;20435;-77
2022/10/02 14:39:03;;;;;;;6.67;2.20;;;15.20;99.90;;;;;;4962378;28;21029;-78
2022/10/02 14:41:50;;;;;;;3.20;2.13;;;15.20;99.90;;;;;;4961825;28;20503;-78
2022/10/02 14:44:50;;;;;;;4.00;2.43;;;15.20;99.90;;;;;;4957235;28;20504;-78
2022/10/02 14:47:32;;;;;;;3.33;1.90;;;14.90;99.90;;;;;;4956190;28;20470;-78
2022/10/02 14:50:18;;;;;;;5.10;1.63;;;15.20;99.90;;;;;;4956903;28;20435;-78
2022/10/02 14:53:06;;;;;;;3.20;1.70;;;15.20;99.90;;;;;;4956584;28;20434;-78
2022/10/02 14:55:44;;;;;;;6.00;1.90;;;15.10;99.90;;;;;;4956381;28;20442;-78
2022/10/02 14:58:31;;;;;;;2.60;1.87;;;15.20;99.90;;;;;;4957269;28;20474;-78
2022/10/02 15:01:20;;;;;;;3.40;2.53;;;15.10;99.90;;;;;;4963261;28;20454;-78
2022/10/02 15:04:04;;;;;;;1.93;1.80;;;15.10;99.90;;;;;;4957233;28;20433;-78
2022/10/02 15:06:45;;;;;;;6.60;2.70;;;15.10;99.90;;;;;;4956561;28;20506;-78
2022/10/02 15:09:18;;;;;;;7.60;1.80;;;15.10;99.90;;;;;;4957833;28;20563;-78
2022/10/02 15:11:57;;;;;;;9.67;2.80;;;15.10;99.90;;;;;;4957792;28;20435;-78
2022/10/02 15:14:33;;;;;;;8.77;2.50;;;15.10;99.90;;;;;;5013103;23;20527;-81
2022/10/02 15:19:51;;;;;;;10.00;2.77;;;15.10;99.90;;;;;;5003641;28;20472;-82
2022/10/02 15:22:24;;;;;;;2.97;2.40;;;15.20;99.90;;;;;;5003140;28;20440;-80
2022/10/02 15:24:56;;;;;;;4.40;2.40;;;15.00;99.90;;;;;;5002518;28;20449;-79
2022/10/02 15:27:25;;;;;;;4.23;2.20;;;14.90;99.90;;;;;;5011674;28;20476;-81
2022/10/02 15:30:10;;;;;;;2.37;1.67;;;14.90;99.90;;;;;;5007627;28;20419;-81
2022/10/02 15:32:55;;;;;;;4.60;1.93;;;14.80;99.90;;;;;;5004081;28;20535;-82
2022/10/02 15:35:30;;;;;;;2.40;1.60;;;14.80;99.90;;;;;;5003633;28;20436;-82
2022/10/02 15:38:25;;;;;;;3.27;1.70;;;14.90;99.90;;;;;;5002375;28;20432;-82
2022/10/02 15:41:04;;;;;;;2.83;1.60;;;14.90;99.90;;;;;;4999823;28;20938;-82
2022/10/02 15:43:43;;;;;;;4.07;1.67;;;15.00;99.90;;;;;;5001037;28;20491;-81
2022/10/02 15:46:20;;;;;;;3.37;2.17;;;15.00;99.90;;;;;;5001098;28;20434;-81
2022/10/02 15:49:00;;;;;;;6.50;2.10;;;14.90;99.90;;;;;;5001486;28;20503;-81
2022/10/02 15:51:42;;;;;;;2.60;2.10;;;14.90;99.90;;;;;;5001260;28;20955;-81
2022/10/02 15:54:20;;;;;;;6.57;2.00;;;14.90;99.90;;;;;;5000494;28;20468;-82
2022/10/02 15:57:07;;;;;;;2.37;1.53;;;14.90;99.90;;;;;;5000734;28;20487;-81
2022/10/02 15:59:58;;;;;;;3.00;1.60;;;14.90;99.90;;;;;;4999904;28;20436;-82
2022/10/02 16:02:41;;;;;;;3.70;2.07;;;14.80;99.90;;;;;;5001510;28;20916;-82
2022/10/02 16:05:20;;;;;;;6.43;2.43;;;14.80;99.90;;;;;;5000438;28;20961;-82
2022/10/02 16:08:17;;;;;;;6.17;2.00;;;14.70;99.90;;;;;;5003199;28;20446;-82
2022/10/02 16:11:08;;;;;;;5.63;2.63;;;14.70;99.90;;;;;;5003268;28;20489;-81
2022/10/02 16:13:46;;;;;;;2.30;2.10;;;14.60;99.90;;;;;;5001494;28;20476;-82
2022/10/02 16:16:29;;;;;;;5.60;2.33;;;14.60;99.90;;;;;;5009476;28;20539;-81
2022/10/02 16:19:06;;;;;;;6.47;2.30;;;14.50;99.90;;;;;;5000829;28;20436;-79
2022/10/02 16:21:43;;;;;;;5.07;2.47;;;14.50;99.90;;;;;;5001166;28;20441;-81
2022/10/02 16:24:31;;;;;;;8.90;2.60;;;14.40;99.90;;;;;;5000009;28;20453;-79
2022/10/02 16:27:26;;;;;;;5.90;2.17;;;14.30;99.90;;;;;;5002659;28;20431;-82
2022/10/02 16:30:18;;;;;;;8.90;3.10;;;14.20;99.90;;;;;;5009314;28;20433;-81
2022/10/02 16:33:13;;;;;;;4.90;2.67;;;13.80;99.90;;;;;;5004415;28;20476;-82
2022/10/02 16:36:28;;;;;;;6.47;3.40;;;14.10;99.90;;;;;;4988263;28;20814;-80
2022/10/02 16:39:20;;;;;;;5.90;2.90;;;14.00;99.90;;;;;;4994116;28;20423;-81
2022/10/02 16:42:11;;;;;;;2.90;2.53;;;14.00;99.90;;;;;;5001458;28;20456;-80
2022/10/02 16:45:00;;;;;;;8.40;3.67;;;14.00;99.90;;;;;;5011699;28;20977;-79
2022/10/02 16:47:31;;;;;;;7.87;3.93;;;13.90;99.90;;;;;;4990341;28;20488;-80
2022/10/02 16:50:02;;;;;;;5.00;3.40;;;13.80;99.90;;;;;;5001521;28;20437;-80
2022/10/02 16:52:36;;;;;;;4.07;3.27;;;13.90;99.90;;;;;;4999555;28;20515;-81
2022/10/02 16:55:14;;;;;;;4.73;2.60;;;13.90;99.90;;;;;;5000088;28;20429;-80
2022/10/02 16:58:04;;;;;;;4.33;2.70;;;13.80;99.90;;;;;;5000892;28;20839;-81
2022/10/02 17:00:37;;;;;;;6.13;3.60;;;13.70;99.90;;;;;;4999690;28;20462;-82
2022/10/02 17:03:10;;;;;;;6.53;3.83;;;13.60;99.90;;;;;;5003248;28;20464;-82
2022/10/02 17:05:46;;;;;;;3.90;2.67;;;13.60;99.90;;;;;;5004068;28;20436;-81
2022/10/02 17:08:22;;;;;;;8.70;3.00;;;13.50;99.90;;;;;;4999159;28;20468;-81
2022/10/02 17:11:04;;;;;;;9.03;2.93;;;13.50;99.90;;;;;;4999309;28;20444;-82
2022/10/02 17:13:37;;;;;;;4.97;2.90;;;13.50;99.90;;;;;;4999386;28;20484;-79
2022/10/02 17:16:11;;;;;;;8.63;3.80;;;13.50;99.90;;;;;;5005441;28;20811;-79
2022/10/02 17:18:42;;;;;;;7.60;3.33;;;13.40;99.90;;;;;;5005803;28;20421;-79
2022/10/02 17:21:14;;;;;;;3.77;3.23;;;13.40;99.90;;;;;;5000491;28;20428;-79
2022/10/02 17:23:51;;;;;;;9.17;3.67;;;13.30;99.90;;;;;;5001796;28;20472;-81
2022/10/02 17:26:29;;;;;;;8.77;3.93;;;13.30;99.90;;;;;;5003230;28;20433;-79
2022/10/02 17:29:04;;;;;;;9.30;5.13;;;13.20;99.90;;;;;;5002428;28;20399;-79
2022/10/02 17:31:40;;;;;;;4.67;3.60;;;13.10;99.90;;;;;;5003932;28;20437;-78
2022/10/02 17:34:20;;;;;;;8.93;5.93;;;13.10;99.90;;;;;;5004601;28;20479;-80
2022/10/02 17:37:02;;;;;;;4.90;4.03;;;13.10;99.90;;;;;;5001243;28;20487;-81
2022/10/02 17:39:42;;;;;;;6.03;3.53;;;13.00;99.90;;;;;;4999496;28;20443;-81
2022/10/02 17:42:19;;;;;;;11.03;3.53;;;13.00;99.90;;;;;;4998359;28;20436;-81
2022/10/02 17:44:56;;;;;;;13.53;3.60;;;13.00;99.90;;;;;;4999945;28;20452;-80
2022/10/02 17:47:52;;;;;;;7.60;4.17;;;13.00;99.90;;;;;;5001597;28;20464;-82
2022/10/02 17:50:58;;;;;;;6.53;4.20;;;12.90;99.90;;;;;;5001039;28;20536;-82
2022/10/02 17:56:55;;;;;;;4.20;3.27;;;13.00;99.90;;;;;;4999455;28;20416;-82
2022/10/02 17:59:47;;;;;;;4.03;2.70;;;13.00;99.90;;;;;;4999489;28;20424;-81
2022/10/02 18:02:26;;;;;;;5.00;3.10;;;13.00;99.90;;;;;;5000728;28;20812;-79
2022/10/02 18:05:12;;;;;;;4.07;3.10;;;12.90;99.90;;;;;;4999313;28;20527;-82
2022/10/02 18:07:52;;;;;;;8.50;3.90;;;12.90;99.90;;;;;;4998996;28;20499;-81
2022/10/02 18:10:27;;;;;;;11.43;3.70;;;13.00;99.90;;;;;;4999295;28;20771;-81
2022/10/02 18:13:13;;;;;;;4.90;3.57;;;13.00;99.90;;;;;;5003519;28;20862;-79
2022/10/02 18:16:17;;;;;;;6.50;3.53;;;13.00;99.90;;;;;;5018659;28;20436;-80
2022/10/02 18:19:05;;;;;;;7.67;4.30;;;12.90;99.90;;;;;;4997913;28;20498;-81
2022/10/02 18:21:46;;;;;;;7.20;4.03;;;12.90;99.90;;;;;;4999599;28;20436;-81
2022/10/02 18:24:40;;;;;;;4.97;4.03;;;12.90;99.90;;;;;;4998545;28;20522;-80
2022/10/02 18:27:24;;;;;;;5.90;4.23;;;12.80;99.90;;;;;;4999108;28;20534;-80
2022/10/02 18:30:03;;;;;;;7.03;4.23;;;12.80;99.90;;;;;;4999164;28;20407;-81
2022/10/02 18:33:01;;;;;;;7.43;5.10;;;12.90;99.90;;;;;;4998348;28;20492;-81
2022/10/02 18:35:35;;;;;;;8.40;4.60;;;12.80;99.90;;;;;;5002377;28;20190;-80
2022/10/02 18:38:18;;;;;;;6.57;5.00;;;12.90;99.90;;;;;;5001536;28;20428;-79
2022/10/02 18:40:54;;;;;;;8.37;5.37;;;12.80;99.90;;;;;;5003972;28;20779;-79
2022/10/02 18:43:37;;;;;;;8.80;4.80;;;12.70;99.90;;;;;;5002107;28;20472;-81
2022/10/02 18:46:16;;;;;;;4.83;3.33;;;12.70;99.90;;;;;;5001375;28;20923;-82
2022/10/02 18:48:58;;;;;;;9.17;6.10;;;12.70;99.90;;;;;;5004188;28;20534;-82
2022/10/02 18:51:53;;;;;;;7.27;3.90;;;12.80;99.90;;;;;;5005127;28;20483;-80
2022/10/02 18:54:28;;;;;;;5.20;4.43;;;12.80;99.90;;;;;;5004450;28;20540;-82
2022/10/02 18:57:06;;;;;;;7.07;4.87;;;12.80;99.90;;;;;;5004782;28;20411;-82
2022/10/02 18:59:45;;;;;;;8.43;5.80;;;12.70;99.90;;;;;;5003138;28;20439;-79
2022/10/02 19:02:35;;;;;;;17.33;14.03;;;12.70;99.90;;;;;;5006205;28;20498;-79
2022/10/02 19:05:25;;;;;;;13.27;7.30;;;12.70;99.90;;;;;;5009173;28;20407;-82
2022/10/02 19:08:06;;;;;;;6.63;4.97;;;12.60;99.90;;;;;;5014386;28;20452;-81
2022/10/02 19:10:43;;;;;;;9.30;4.27;;;12.50;99.90;;;;;;5012584;28;20497;-79
2022/10/02 19:13:22;;;;;;;9.47;4.87;;;12.70;99.90;;;;;;5003828;28;20476;-83
2022/10/02 19:15:51;;;;;;;7.27;4.77;;;12.60;99.90;;;;;;5003860;28;20436;-80
2022/10/02 19:18:19;;;;;;;6.73;4.53;;;12.40;99.90;;;;;;5004036;28;21005;-82
2022/10/02 19:20:56;;;;;;;4.40;3.97;;;12.40;99.90;;;;;;5002016;28;20448;-82
2022/10/02 19:23:37;;;;;;;13.20;4.70;;;12.50;99.90;;;;;;5002834;28;20471;-82
2022/10/02 19:26:15;;;;;;;12.17;3.80;;;12.50;99.90;;;;;;5002542;28;20436;-82
2022/10/02 19:28:46;;;;;;;8.63;4.77;;;12.50;99.90;;;;;;5003983;28;20492;-82
2022/10/02 19:31:21;;;;;;;6.97;5.00;;;12.40;99.90;;;;;;5004403;28;20433;-83
2022/10/02 19:33:52;;;;;;;9.17;5.47;;;12.30;99.90;;;;;;5016143;28;20452;-79
2022/10/02 19:36:22;;;;;;;6.53;4.73;;;12.40;99.90;;;;;;5017667;28;20417;-81
2022/10/02 19:38:55;;;;;;;6.90;4.20;;;12.30;99.90;;;;;;5013470;28;20449;-80
2022/10/02 19:41:24;;;;;;;4.53;3.60;;;12.20;99.90;;;;;;5002920;28;20444;-81
2022/10/02 19:43:56;;;;;;;6.57;4.30;;;12.20;99.90;;;;;;5002120;28;20472;-81
2022/10/02 19:46:33;;;;;;;7.53;4.60;;;12.30;99.90;;;;;;5009228;28;20420;-81
2022/10/02 19:49:01;;;;;;;6.00;3.87;;;12.50;99.90;;;;;;5018584;28;20465;-80
2022/10/02 19:51:45;;;;;;;6.43;3.60;;;12.30;99.90;;;;;;5002990;28;20452;-80
2022/10/02 19:54:16;;;;;;;5.87;4.77;;;12.20;99.90;;;;;;5000759;28;20496;-82
2022/10/02 19:56:45;;;;;;;7.07;4.03;;;12.20;99.90;;;;;;5001497;28;20870;-82
2022/10/02 19:59:18;;;;;;;9.37;4.53;;;12.20;99.90;;;;;;5001266;28;20459;-82
2022/10/02 20:01:50;;;;;;;3.87;3.53;;;12.20;99.90;;;;;;5006559;28;20454;-83
2022/10/02 20:04:20;;;;;;;6.60;3.77;;;12.30;99.90;;;;;;5012068;28;20463;-82
2022/10/02 20:06:51;;;;;;;9.00;5.40;;;12.30;99.90;;;;;;5013659;28;20431;-81
2022/10/02 20:09:23;;;;;;;8.40;4.60;;;12.30;99.90;;;;;;5015077;28;20476;-80
2022/10/02 20:11:56;;;;;;;8.80;4.57;;;12.20;99.90;;;;;;5014428;28;20464;-81
2022/10/02 20:14:28;;;;;;;9.80;4.20;;;12.10;99.90;;;;;;5010338;28;20907;-82
2022/10/02 20:17:09;;;;;;;8.97;4.13;;;12.20;99.90;;;;;;4999639;28;20403;-81
2022/10/02 20:19:40;;;;;;;9.80;4.60;;;12.10;99.90;;;;;;5001145;28;20488;-81
2022/10/02 20:22:15;;;;;;;11.03;4.37;;;12.20;99.90;;;;;;5003165;28;20750;-81
2022/10/02 20:24:50;;;;;;;6.80;3.70;;;12.10;99.90;;;;;;5002008;28;20428;-81
2022/10/02 20:27:24;;;;;;;6.50;3.43;;;12.00;99.90;;;;;;5004438;28;20829;-81
2022/10/02 20:29:55;;;;;;;10.20;3.60;;;12.10;99.90;;;;;;5001753;28;20403;-82
2022/10/02 20:32:26;;;;;;;8.15;4.57;;;12.40;99.90;;;;;;5000918;28;20427;-81
2022/10/02 20:34:59;;;;;;;8.70;4.23;;;12.10;99.90;;;;;;5001528;28;20209;-82
2022/10/02 20:37:33;;;;;;;8.27;4.57;;;12.10;99.90;;;;;;4999662;28;20490;-81
2022/10/02 20:40:12;;;;;;;12.37;4.47;;;12.00;99.90;;;;;;5000530;28;20424;-79
2022/10/02 20:42:48;;;;;;;5.27;3.53;;;12.00;99.90;;;;;;5003016;28;20468;-79
2022/10/02 20:45:16;;;;;;;9.70;3.50;;;12.00;99.90;;;;;;5002231;28;20531;-80
2022/10/02 20:48:03;;;;;;;11.30;3.30;;;12.00;99.90;;;;;;5000610;28;20993;-82
2022/10/02 20:50:50;;;;;;;10.30;3.13;;;12.00;99.90;;;;;;5000220;28;20451;-80
2022/10/02 20:53:52;;;;;;;7.37;3.50;;;12.00;99.90;;;;;;5000100;28;20570;-82
2022/10/02 20:56:39;;;;;;;7.17;4.13;;;12.10;99.90;;;;;;4999450;28;20957;-81
2022/10/02 20:59:28;;;;;;;6.50;3.07;;;12.10;99.90;;;;;;4999628;28;20818;-81
2022/10/02 21:02:08;;;;;;;7.90;3.93;;;12.10;99.90;;;;;;4999228;28;20935;-79
2022/10/02 21:04:56;;;;;;;7.50;4.27;;;12.00;99.90;;;;;;4999075;28;20454;-80
2022/10/02 21:07:35;;;;;;;11.90;4.10;;;11.90;99.90;;;;;;5000573;28;20437;-80
2022/10/02 21:10:45;;;;;;;11.20;4.27;;;11.90;99.90;;;;;;5001438;28;20429;-82
2022/10/02 21:13:42;;;;;;;11.50;4.40;;;11.70;99.90;;;;;;5040228;23;20488;-76
2022/10/02 21:16:43;;;;;;;11.57;3.20;;;12.00;99.90;;;;;;4977324;28;20460;-77
2022/10/02 21:19:46;;;;;;;11.87;3.60;;;11.90;99.90;;;;;;4973764;28;20454;-77
2022/10/02 21:22:31;;;;;;;13.00;4.10;;;11.90;99.90;;;;;;4970983;28;20948;-77
2022/10/02 21:25:35;;;;;;;9.80;3.90;;;12.00;99.90;;;;;;4976306;28;20469;-78
2022/10/02 21:28:40;;;;;;;14.40;3.70;;;11.90;99.90;;;;;;4977387;28;20479;-79
2022/10/02 21:31:30;;;;;;;14.70;3.70;;;11.70;99.90;;;;;;4977255;28;20432;-78
2022/10/02 21:34:09;;;;;;;6.40;3.13;;;11.90;99.90;;;;;;4976845;28;20469;-78
2022/10/02 21:36:41;;;;;;;13.87;3.60;;;11.80;99.90;;;;;;4977081;28;20442;-78
2022/10/02 21:39:51;;;;;;;6.17;3.43;;;11.60;99.90;;;;;;4977108;28;20441;-78
2022/10/02 21:42:54;;;;;;;10.50;3.33;;;11.80;99.90;;;;;;4977198;28;20428;-78
2022/10/02 21:46:07;;;;;;;9.87;4.10;;;11.80;99.90;;;;;;4976888;28;20459;-77
2022/10/02 21:49:13;;;;;;;8.93;3.40;;;11.80;99.90;;;;;;4978523;28;20492;-78
2022/10/02 21:52:21;;;;;;;7.17;3.27;;;11.80;99.90;;;;;;4980253;28;20449;-78
2022/10/02 21:55:14;;;;;;;12.33;4.27;;;11.80;99.90;;;;;;4979868;28;20480;-78
2022/10/02 21:58:20;;;;;;;8.53;3.17;;;11.80;99.90;;;;;;4980168;28;20502;-78
2022/10/02 22:01:07;;;;;;;10.67;3.57;;;11.80;99.90;;;;;;4979757;28;20973;-78
2022/10/02 22:04:02;;;;;;;13.47;3.30;;;11.80;99.90;;;;;;4979964;28;20481;-77
2022/10/02 22:06:49;;;;;;;6.60;3.53;;;11.80;99.90;;;;;;4981159;28;20480;-77
2022/10/02 22:09:33;;;;;;;15.80;4.80;;;11.80;99.90;;;;;;4976273;28;20880;-77
2022/10/02 22:12:12;;;;;;;14.70;3.77;;;11.80;99.90;;;;;;4979978;28;20434;-76
2022/10/02 22:14:41;;;;;;;10.63;3.70;;;11.70;99.90;;;;;;4976377;28;20526;-77
2022/10/02 22:17:20;;;;;;;9.67;3.40;;;11.70;99.90;;;;;;4975518;28;20455;-77
2022/10/02 22:20:09;;;;;;;7.13;3.20;;;11.70;99.90;;;;;;4975304;28;20489;-77
2022/10/02 22:22:56;;;;;;;11.17;3.00;;;11.70;99.90;;;;;;4975089;28;20433;-77
2022/10/02 22:25:39;;;;;;;12.87;3.87;;;11.70;99.90;;;;;;4975255;28;20445;-77
2022/10/02 22:28:21;;;;;;;9.40;4.23;;;11.60;99.90;;;;;;4974969;28;20434;-77
2022/10/02 22:31:10;;;;;;;9.33;4.63;;;11.70;99.90;;;;;;4976122;28;20485;-78
2022/10/02 22:33:52;;;;;;;13.87;3.97;;;11.70;99.90;;;;;;4976478;28;20477;-77
2022/10/02 22:36:33;;;;;;;8.97;3.40;;;11.60;99.90;;;;;;4982425;28;20557;-77
2022/10/02 22:39:06;;;;;;;12.60;4.43;;;11.60;99.90;;;;;;4981027;28;20429;-78
2022/10/02 22:41:37;;;;;;;11.53;3.47;;;11.70;99.90;;;;;;4976729;28;20452;-77
2022/10/02 22:44:08;;;;;;;9.23;2.93;;;11.60;99.90;;;;;;4976959;28;20470;-77
2022/10/02 22:46:45;;;;;;;16.33;5.67;;;11.60;99.90;;;;;;4977011;28;20437;-77
2022/10/02 22:49:21;;;;;;;13.43;4.73;;;11.60;99.90;;;;;;4976196;28;20538;-77
2022/10/02 22:51:57;;;;;;;8.13;4.87;;;11.60;99.90;;;;;;4975786;28;20437;-77
2022/10/02 22:54:31;;;;;;;6.13;3.80;;;11.60;99.90;;;;;;4975731;28;20469;-78
2022/10/02 22:57:11;;;;;;;9.17;3.73;;;11.50;99.90;;;;;;4975843;28;20437;-78
2022/10/02 22:59:42;;;;;;;12.87;3.60;;;11.60;99.90;;;;;;4975443;28;20430;-78
2022/10/02 23:02:14;;;;;;;9.57;3.83;;;11.60;99.90;;;;;;4975732;28;20478;-77
2022/10/02 23:04:50;;;;;;;11.20;3.47;;;11.60;99.90;;;;;;4975367;28;20520;-78
2022/10/02 23:07:26;;;;;;;12.00;4.37;;;11.60;99.90;;;;;;4975014;28;20434;-78
2022/10/02 23:10:00;;;;;;;10.90;3.90;;;11.50;99.90;;;;;;4975220;28;20877;-77
2022/10/02 23:12:37;;;;;;;12.60;4.27;;;11.50;99.90;;;;;;4975504;28;20840;-77
2022/10/02 23:15:25;;;;;;;8.90;4.30;;;11.50;99.90;;;;;;4975702;28;20485;-77
2022/10/02 23:17:58;;;;;;;12.33;4.17;;;11.60;99.90;;;;;;4975370;28;20429;-78
2022/10/02 23:20:32;;;;;;;16.40;4.23;;;11.50;99.90;;;;;;4975829;28;20843;-78
2022/10/02 23:23:08;;;;;;;19.10;4.80;;;11.30;99.90;;;;;;4975852;28;20440;-78
2022/10/02 23:25:42;;;;;;;12.70;4.50;;;11.50;99.90;;;;;;4975679;28;20445;-77
2022/10/02 23:28:16;;;;;;;7.63;3.63;;;11.60;99.90;;;;;;4975216;28;20441;-78
2022/10/02 23:30:46;;;;;;;11.20;3.93;;;11.60;99.90;;;;;;4975262;28;20408;-77
2022/10/02 23:33:24;;;;;;;13.03;3.40;;;11.60;99.90;;;;;;4977553;28;20439;-77
2022/10/02 23:35:58;;;;;;;13.27;3.30;;;11.40;99.90;;;;;;4978351;28;20437;-77
2022/10/02 23:38:37;;;;;;;10.00;3.00;;;11.50;99.90;;;;;;4978353;28;20883;-78
2022/10/02 23:44:08;;;;;;;13.27;3.67;;;11.50;99.90;;;;;;4978505;28;20448;-77
2022/10/02 23:46:45;;;;;;;22.00;4.40;;;11.60;99.90;;;;;;4978324;28;20437;-77
2022/10/02 23:49:12;;;;;;;9.53;3.77;;;11.60;99.90;;;;;;4980401;28;20889;-77
2022/10/02 23:51:51;;;;;;;8.50;3.30;;;11.60;99.90;;;;;;4979091;28;20462;-77
2022/10/02 23:54:38;;;;;;;8.47;3.77;;;11.60;99.90;;;;;;4980704;28;20468;-77
2022/10/02 23:57:55;;;;;;;12.40;3.20;;;11.50;99.90;;;;;;4979992;28;20412;-77
